Time;durP1;ratioP1;P1;durP2;ratioP2;P2;SDS_P1;SDS_P2;PMS_P1;PMS_P2;Temp;Humidity;BMP_temperature;BMP_pressure;BME280_temperature;BME280_humidity;BME280_pressure;Samples;Min_cycle;Max_cycle;Signal;HPM_P1;HPM_P2
2023/01/15 00:01:52;;;;;;;0.70;0.20;;;;;;;10.02;100.00;99079.53;5011524;28;20113;-75
2023/01/15 00:04:18;;;;;;;0.82;0.30;;;;;;;10.09;100.00;99083.72;5010291;28;20064;-75
2023/01/15 00:06:43;;;;;;;2.22;0.38;;;;;;;10.13;100.00;99067.81;5012492;28;20042;-76
2023/01/15 00:09:13;;;;;;;0.93;0.38;;;;;;;10.08;100.00;99066.16;5014149;28;20100;-75
2023/01/15 00:11:38;;;;;;;1.55;0.25;;;;;;;10.15;99.95;99068.66;5011082;28;20050;-75
2023/01/15 00:14:04;;;;;;;2.88;0.40;;;;;;;10.26;100.00;99061.31;5011570;28;20053;-76
2023/01/15 00:16:29;;;;;;;2.25;0.38;;;;;;;10.25;98.56;99064.84;5011080;28;20056;-76
2023/01/15 00:18:58;;;;;;;0.82;0.20;;;;;;;10.28;98.11;99059.53;5011585;28;20069;-76
2023/01/15 00:21:25;;;;;;;0.43;0.20;;;;;;;10.29;98.20;99058.59;5012625;28;20037;-76
2023/01/15 00:29:22;;;;;;;0.90;0.22;;;;;;;10.40;96.33;99022.25;5011631;28;20095;-76
2023/01/15 00:32:07;;;;;;;0.28;0.00;;;;;;;10.42;97.04;99017.78;5013531;28;20042;-76
2023/01/15 00:34:33;;;;;;;0.95;0.13;;;;;;;10.43;96.58;99008.97;5011707;28;20042;-76
2023/01/15 00:37:00;;;;;;;1.45;0.20;;;;;;;10.43;96.79;99011.63;5011523;28;20037;-76
2023/01/15 00:39:25;;;;;;;1.20;0.20;;;;;;;10.39;96.24;99003.84;5013461;28;20424;-76
2023/01/15 00:41:51;;;;;;;0.52;0.22;;;;;;;10.39;95.73;99015.25;5019965;28;20042;-75
2023/01/15 00:44:17;;;;;;;0.68;0.10;;;;;;;10.47;96.19;99025.56;5014622;28;20112;-76
2023/01/15 00:46:42;;;;;;;0.32;0.20;;;;;;;10.44;95.48;99015.97;5014078;28;20030;-76
2023/01/15 00:49:08;;;;;;;0.70;0.20;;;;;;;10.44;96.02;99015.13;5015126;28;20042;-76
2023/01/15 00:51:34;;;;;;;0.30;0.10;;;;;;;10.44;96.06;99015.97;5013311;28;20029;-75
2023/01/15 00:54:00;;;;;;;0.75;0.20;;;;;;;10.43;95.90;99002.84;5013112;28;20084;-76
2023/01/15 00:56:26;;;;;;;0.30;0.10;;;;;;;10.48;95.71;99001.78;4996717;28;20026;-76
2023/01/15 00:58:51;;;;;;;0.55;0.20;;;;;;;10.49;96.18;98985.03;4996911;28;20030;-76
2023/01/15 01:01:16;;;;;;;0.20;0.08;;;;;;;10.47;95.55;98973.66;5010351;28;20069;-76
2023/01/15 01:03:42;;;;;;;1.13;0.10;;;;;;;10.51;95.41;98966.53;5012923;28;20034;-76
2023/01/15 01:06:09;;;;;;;0.22;0.10;;;;;;;10.47;95.60;98963.13;5013556;28;20033;-76
2023/01/15 01:08:34;;;;;;;1.15;0.32;;;;;;;10.49;95.69;98961.31;5013903;28;20505;-76
2023/01/15 01:11:12;;;;;;;1.33;0.30;;;;;;;10.50;95.49;98964.78;4993597;28;20048;-76
2023/01/15 01:13:37;;;;;;;0.55;0.20;;;;;;;10.48;96.04;98961.38;5009627;28;20057;-76
2023/01/15 01:16:04;;;;;;;0.82;0.20;;;;;;;10.52;96.14;98955.94;5012023;28;20510;-76
2023/01/15 01:18:30;;;;;;;0.47;0.10;;;;;;;10.53;95.92;98949.75;5014013;28;20034;-76
2023/01/15 01:20:55;;;;;;;0.75;0.22;;;;;;;10.56;95.27;98955.81;5013839;28;20038;-76
2023/01/15 01:23:24;;;;;;;0.40;0.10;;;;;;;10.59;95.68;98939.94;5013799;28;20076;-75
2023/01/15 01:25:50;;;;;;;0.38;0.10;;;;;;;10.57;95.83;98925.91;5013173;28;20042;-75
2023/01/15 01:28:15;;;;;;;0.73;0.30;;;;;;;10.58;95.54;98922.34;5012597;28;20034;-76
2023/01/15 01:30:40;;;;;;;0.40;0.20;;;;;;;10.61;95.92;98914.34;4995952;28;20448;-75
2023/01/15 01:33:06;;;;;;;3.03;0.22;;;;;;;10.58;96.03;98912.66;5012568;28;20562;-78
2023/01/15 01:35:31;;;;;;;1.60;0.15;;;;;;;10.58;95.81;98907.38;5013003;28;20112;-78
2023/01/15 01:37:57;;;;;;;0.50;0.20;;;;;;;10.62;95.75;98916.09;5013383;28;20080;-77
2023/01/15 01:40:22;;;;;;;1.48;0.20;;;;;;;10.65;95.63;98923.91;5012182;28;20042;-78
2023/01/15 01:42:48;;;;;;;0.20;0.10;;;;;;;10.70;95.79;98912.28;5013475;28;20025;-77
2023/01/15 01:45:24;;;;;;;0.30;0.10;;;;;;;10.74;95.41;98916.56;5013494;28;20137;-77
2023/01/15 01:47:51;;;;;;;0.30;0.10;;;;;;;10.81;95.08;98914.56;5011929;28;20034;-77
2023/01/15 01:50:16;;;;;;;0.70;0.20;;;;;;;10.80;95.13;98910.22;5013221;28;20138;-77
2023/01/15 01:52:48;;;;;;;0.50;0.20;;;;;;;10.83;94.91;98899.53;5013081;28;20121;-78
2023/01/15 01:55:15;;;;;;;0.13;0.10;;;;;;;10.83;94.82;98902.19;5013401;28;20065;-77
2023/01/15 01:57:41;;;;;;;0.80;0.20;;;;;;;10.90;94.87;98910.78;5008385;28;20034;-77
2023/01/15 02:00:09;;;;;;;0.47;0.10;;;;;;;10.90;95.57;98902.84;5020672;28;20042;-77
2023/01/15 02:02:45;;;;;;;0.52;0.15;;;;;;;10.79;95.58;98900.53;5013114;28;20101;-78
2023/01/15 02:05:16;;;;;;;0.17;0.10;;;;;;;10.88;96.02;98905.53;5014715;28;20038;-77
2023/01/15 02:07:42;;;;;;;0.57;0.25;;;;;;;10.87;95.33;98913.50;5009405;28;20396;-77
2023/01/15 02:10:14;;;;;;;0.85;0.30;;;;;;;10.92;95.70;98911.56;5006531;28;20116;-77
2023/01/15 02:12:44;;;;;;;0.35;0.10;;;;;;;10.93;95.81;98903.59;5012533;28;20030;-77
2023/01/15 02:15:14;;;;;;;1.33;0.30;;;;;;;10.94;95.45;98910.59;5013328;28;20044;-77
2023/01/15 02:18:01;;;;;;;0.55;0.10;;;;;;;10.95;95.26;98903.53;5020017;28;20455;-77
2023/01/15 02:20:51;;;;;;;1.02;0.20;;;;;;;11.02;94.59;98898.94;5012036;28;20056;-77
2023/01/15 02:23:50;;;;;;;1.30;0.30;;;;;;;11.04;94.61;98895.31;5013165;28;20496;-77
2023/01/15 02:26:54;;;;;;;0.80;0.25;;;;;;;11.08;94.45;98899.59;5016023;28;20037;-77
2023/01/15 02:29:38;;;;;;;0.43;0.10;;;;;;;11.11;94.12;98886.28;5007376;28;20034;-78
2023/01/15 02:32:10;;;;;;;0.68;0.25;;;;;;;11.16;94.03;98888.75;5013252;28;20056;-77
2023/01/15 02:34:41;;;;;;;0.40;0.20;;;;;;;11.11;94.00;98881.00;5011188;28;20033;-77
2023/01/15 02:37:13;;;;;;;2.20;0.10;;;;;;;11.18;93.86;98881.63;5010356;28;20060;-77
2023/01/15 02:39:42;;;;;;;1.33;0.30;;;;;;;11.19;94.28;98878.09;5006506;28;20447;-78
2023/01/15 02:42:09;;;;;;;0.35;0.20;;;;;;;11.22;93.47;98872.69;5011160;28;20030;-78
2023/01/15 02:44:47;;;;;;;0.55;0.20;;;;;;;11.18;93.95;98869.28;5010838;28;20044;-78
2023/01/15 02:47:16;;;;;;;0.15;0.13;;;;;;;11.26;94.37;98868.16;5007341;28;20087;-77
2023/01/15 02:49:44;;;;;;;0.65;0.20;;;;;;;11.23;94.77;98857.72;5010744;28;20041;-77
2023/01/15 02:52:18;;;;;;;0.20;0.10;;;;;;;11.15;96.42;98868.53;5019429;28;20401;-77
2023/01/15 02:54:54;;;;;;;0.77;0.15;;;;;;;11.16;97.13;98852.66;5021992;28;20041;-77
2023/01/15 02:57:24;;;;;;;0.10;0.10;;;;;;;11.13;97.53;98865.97;5013702;28;20443;-77
2023/01/15 02:59:56;;;;;;;0.08;0.00;;;;;;;11.08;98.67;98862.63;5008010;28;20117;-78
2023/01/15 03:02:27;;;;;;;0.32;0.10;;;;;;;11.01;99.50;98870.81;5011960;28;20037;-78
2023/01/15 03:05:04;;;;;;;0.30;0.10;;;;;;;11.00;99.35;98869.06;5010796;28;20034;-78
2023/01/15 03:07:41;;;;;;;0.77;0.20;;;;;;;11.00;99.83;98855.88;5005565;28;20091;-78
2023/01/15 03:10:08;;;;;;;1.05;0.20;;;;;;;10.98;99.56;98850.66;5011972;28;20112;-78
2023/01/15 03:13:01;;;;;;;1.17;0.30;;;;;;;11.00;99.59;98837.38;5010493;28;20497;-77
2023/01/15 03:18:27;;;;;;;1.05;0.25;;;;;;;11.05;99.16;98830.19;5007607;28;20030;-78
2023/01/15 03:20:58;;;;;;;0.70;0.10;;;;;;;11.03;98.63;98824.09;5010342;28;20033;-77
2023/01/15 03:23:26;;;;;;;0.40;0.10;;;;;;;11.08;98.53;98832.69;5006653;28;20057;-77
2023/01/15 03:25:53;;;;;;;0.85;0.15;;;;;;;11.07;99.37;98820.44;5025063;28;20053;-77
2023/01/15 03:28:30;;;;;;;0.20;0.17;;;;;;;11.07;100.00;98831.00;5009972;28;20025;-77
2023/01/15 03:30:57;;;;;;;0.22;0.13;;;;;;;11.06;100.00;98826.63;5006808;28;20408;-77
2023/01/15 03:33:25;;;;;;;1.27;0.10;;;;;;;10.95;100.00;98835.78;5010269;28;20030;-78
2023/01/15 03:35:57;;;;;;;0.88;0.20;;;;;;;10.88;100.00;98834.28;5009714;28;20037;-77
2023/01/15 03:38:50;;;;;;;0.63;0.28;;;;;;;10.80;100.00;98833.69;5006882;28;20034;-78
2023/01/15 03:41:43;;;;;;;0.75;0.17;;;;;;;10.75;100.00;98835.59;5010139;28;20033;-77
2023/01/15 03:44:20;;;;;;;0.35;0.10;;;;;;;10.73;100.00;98826.88;5007679;28;20153;-77
2023/01/15 03:47:20;;;;;;;0.10;0.10;;;;;;;10.69;100.00;98830.56;5010927;28;20042;-78
2023/01/15 03:49:54;;;;;;;0.20;0.20;;;;;;;10.62;100.00;98826.38;5003272;28;20408;-77
2023/01/15 03:53:14;;;;;;;0.47;0.10;;;;;;;10.57;100.00;98820.41;5010137;28;20037;-77
2023/01/15 03:56:14;;;;;;;0.55;0.20;;;;;;;10.43;100.00;98821.72;5006298;28;20100;-78
2023/01/15 03:58:52;;;;;;;2.20;0.15;;;;;;;10.42;100.00;98819.97;5009953;28;20044;-78
2023/01/15 04:01:41;;;;;;;0.38;0.10;;;;;;;10.38;100.00;98815.72;5014385;28;20065;-78
2023/01/15 04:04:09;;;;;;;0.43;0.10;;;;;;;10.35;100.00;98814.94;5014236;28;20034;-78
2023/01/15 04:06:38;;;;;;;2.17;0.20;;;;;;;10.31;100.00;98819.47;5013611;28;20034;-78
2023/01/15 04:09:07;;;;;;;0.38;0.10;;;;;;;10.28;100.00;98811.66;5010755;28;20029;-78
2023/01/15 04:11:33;;;;;;;1.02;0.30;;;;;;;10.24;100.00;98800.34;5014170;28;20045;-79
2023/01/15 04:14:04;;;;;;;1.00;0.10;;;;;;;10.29;100.00;98806.31;5014170;28;20038;-78
2023/01/15 04:16:45;;;;;;;0.82;0.35;;;;;;;10.34;100.00;98795.63;5022478;28;20026;-78
2023/01/15 04:19:11;;;;;;;0.50;0.17;;;;;;;10.36;100.00;98796.44;5018820;28;20030;-77
2023/01/15 04:21:43;;;;;;;1.13;0.22;;;;;;;10.39;100.00;98793.72;5010254;28;20635;-78
2023/01/15 04:24:08;;;;;;;0.17;0.10;;;;;;;10.44;100.00;98789.16;5015166;28;20112;-78
2023/01/15 04:26:33;;;;;;;0.73;0.17;;;;;;;10.45;100.00;98782.97;5014395;28;20109;-78
2023/01/15 04:28:58;;;;;;;0.38;0.22;;;;;;;10.44;100.00;98778.59;5014756;28;20046;-78
2023/01/15 04:31:24;;;;;;;0.60;0.20;;;;;;;10.49;100.00;98781.94;5014752;28;20042;-78
2023/01/15 04:33:49;;;;;;;1.05;0.17;;;;;;;10.52;100.00;98775.69;5014763;28;20077;-77
2023/01/15 04:36:15;;;;;;;0.45;0.20;;;;;;;10.49;100.00;98776.66;5008561;28;20034;-77
2023/01/15 04:38:40;;;;;;;0.95;0.30;;;;;;;10.50;100.00;98770.47;5012421;28;20420;-78
2023/01/15 04:44:05;;;;;;;0.80;0.10;;;;;;;10.57;100.00;98757.94;5011074;28;20121;-78
2023/01/15 04:46:32;;;;;;;1.27;0.22;;;;;;;10.63;100.00;98752.44;5012904;28;20068;-77
2023/01/15 04:48:57;;;;;;;0.13;0.10;;;;;;;10.66;100.00;98751.47;5013611;28;20040;-78
2023/01/15 04:51:23;;;;;;;0.45;0.20;;;;;;;10.63;100.00;98747.16;5019024;28;20042;-78
2023/01/15 04:53:48;;;;;;;0.20;0.10;;;;;;;10.71;100.00;98746.91;5016761;28;20065;-78
2023/01/15 04:56:13;;;;;;;0.73;0.20;;;;;;;10.72;100.00;98744.22;5014230;28;20038;-77
2023/01/15 04:58:39;;;;;;;0.80;0.20;;;;;;;10.70;100.00;98742.56;5019791;28;20481;-77
2023/01/15 05:01:15;;;;;;;0.75;0.30;;;;;;;10.70;100.00;98732.00;5016191;28;20042;-77
2023/01/15 05:03:41;;;;;;;0.73;0.22;;;;;;;10.70;100.00;98739.91;5011621;28;20044;-77
2023/01/15 05:06:07;;;;;;;1.45;0.20;;;;;;;10.70;100.00;98732.00;5012478;28;20508;-77
2023/01/15 05:08:33;;;;;;;0.60;0.20;;;;;;;10.74;100.00;98741.50;5015264;28;20041;-77
2023/01/15 05:11:03;;;;;;;0.22;0.10;;;;;;;10.70;100.00;98743.41;5015463;28;20403;-77
2023/01/15 05:13:31;;;;;;;0.47;0.20;;;;;;;10.72;100.00;98727.53;5010591;28;20092;-77
2023/01/15 05:15:56;;;;;;;0.25;0.10;;;;;;;10.77;100.00;98730.00;5013357;28;20044;-77
2023/01/15 05:18:21;;;;;;;0.22;0.10;;;;;;;10.77;100.00;98727.34;5014168;28;20033;-78
2023/01/15 05:20:47;;;;;;;0.30;0.20;;;;;;;10.77;100.00;98725.59;5013270;28;20638;-77
2023/01/15 05:23:12;;;;;;;0.20;0.10;;;;;;;10.79;100.00;98721.09;5019323;28;20514;-77
2023/01/15 05:25:38;;;;;;;0.82;0.20;;;;;;;10.82;100.00;98731.56;5030063;28;20590;-77
2023/01/15 05:28:03;;;;;;;0.55;0.20;;;;;;;10.83;100.00;98727.16;5013641;28;20115;-77
2023/01/15 05:30:29;;;;;;;0.35;0.10;;;;;;;10.80;100.00;98738.69;5013639;28;20034;-77
2023/01/15 05:32:54;;;;;;;0.10;0.10;;;;;;;10.89;100.00;98727.78;5013732;28;20454;-77
2023/01/15 05:35:19;;;;;;;0.68;0.15;;;;;;;10.92;100.00;98727.66;5013440;28;20526;-78
2023/01/15 05:37:45;;;;;;;0.32;0.30;;;;;;;10.99;100.00;98733.59;5013328;28;20508;-78
2023/01/15 05:40:10;;;;;;;0.32;0.20;;;;;;;11.05;100.00;98727.22;5013370;28;20558;-78
2023/01/15 05:42:36;;;;;;;0.15;0.10;;;;;;;11.08;100.00;98758.78;5013778;28;20492;-79
2023/01/15 05:45:01;;;;;;;0.35;0.20;;;;;;;10.71;99.69;98839.25;5013379;28;20050;-78
2023/01/15 05:47:26;;;;;;;0.32;0.10;;;;;;;8.81;100.00;98887.00;5017694;28;20088;-78
2023/01/15 05:49:52;;;;;;;1.88;0.30;;;;;;;7.88;100.00;98883.81;5019553;28;20030;-80
2023/01/15 05:52:17;;;;;;;2.30;0.40;;;;;;;7.55;100.00;98881.94;5013991;28;20037;-82
2023/01/15 05:54:42;;;;;;;0.57;0.10;;;;;;;7.30;100.00;98894.66;5013914;28;20037;-84
2023/01/15 05:57:11;;;;;;;0.55;0.10;;;;;;;7.09;100.00;98891.53;5016613;28;20033;-83
2023/01/15 05:59:37;;;;;;;0.15;0.10;;;;;;;6.85;100.00;98892.84;5000173;28;20075;-82
2023/01/15 06:02:02;;;;;;;3.63;0.55;;;;;;;6.63;100.00;98907.19;5007941;28;20034;-85
2023/01/15 06:04:27;;;;;;;1.65;0.10;;;;;;;6.52;100.00;98944.06;5018836;28;20033;-82
2023/01/15 06:06:54;;;;;;;0.85;0.10;;;;;;;6.32;100.00;98928.66;5016226;28;20037;-82
2023/01/15 06:09:21;;;;;;;0.35;0.10;;;;;;;6.18;100.00;98927.97;5016176;28;20037;-84
2023/01/15 06:11:47;;;;;;;0.22;0.10;;;;;;;6.07;100.00;98928.09;5018197;28;20084;-84
2023/01/15 06:14:14;;;;;;;1.27;0.20;;;;;;;5.99;100.00;98928.22;5012027;28;20025;-83
2023/01/15 06:16:40;;;;;;;0.63;0.10;;;;;;;5.91;100.00;98923.03;5020333;28;20047;-81
2023/01/15 06:19:06;;;;;;;3.40;0.20;;;;;;;5.85;100.00;98936.22;5016721;28;20042;-81
2023/01/15 06:21:34;;;;;;;0.85;0.10;;;;;;;5.76;100.00;98945.94;5018925;28;20030;-81
2023/01/15 06:23:59;;;;;;;0.28;0.10;;;;;;;5.70;100.00;98983.53;5010581;28;20029;-81
2023/01/15 06:26:25;;;;;;;0.20;0.00;;;;;;;5.58;100.00;98966.22;5014990;28;20038;-82
2023/01/15 06:28:51;;;;;;;2.28;0.10;;;;;;;5.53;100.00;98965.41;5014280;28;20485;-81
2023/01/15 06:31:19;;;;;;;0.95;0.10;;;;;;;5.47;100.00;98968.06;5014494;28;20117;-82
2023/01/15 06:33:44;;;;;;;0.52;0.20;;;;;;;5.41;100.00;98986.44;5013671;28;20092;-80
2023/01/15 06:36:12;;;;;;;1.08;0.10;;;;;;;5.37;100.00;99013.50;5014090;28;20045;-82
2023/01/15 06:38:39;;;;;;;0.50;0.13;;;;;;;5.34;100.00;99003.94;5013949;28;20052;-83
2023/01/15 06:47:19;;;;;;;2.20;0.30;;;;;;;5.25;100.00;99010.13;5028922;28;20049;-81
2023/01/15 06:49:26;;;;;;;0.90;0.30;;;;;;;5.18;100.00;98992.75;5007254;28;20040;-84
2023/01/15 06:51:52;;;;;;;0.88;0.28;;;;;;;5.22;100.00;99009.31;5008259;28;20031;-83
2023/01/15 06:54:17;;;;;;;0.40;0.20;;;;;;;5.23;100.00;99019.75;5029186;28;20053;-84
2023/01/15 06:56:42;;;;;;;0.70;0.10;;;;;;;5.20;100.00;99017.16;5013530;28;20037;-83
2023/01/15 06:59:08;;;;;;;0.50;0.13;;;;;;;5.22;100.00;99020.63;5014628;28;20090;-83
2023/01/15 07:01:33;;;;;;;1.02;0.20;;;;;;;5.25;100.00;99023.22;5024424;28;20132;-83
2023/01/15 07:03:58;;;;;;;1.63;0.30;;;;;;;5.24;100.00;99021.50;4996624;28;20053;-85
2023/01/15 07:06:24;;;;;;;1.25;0.28;;;;;;;5.22;100.00;99023.25;5010809;28;20041;-84
2023/01/15 07:08:49;;;;;;;2.40;0.40;;;;;;;5.17;100.00;99035.50;5012355;28;20034;-83
2023/01/15 07:11:16;;;;;;;1.13;0.20;;;;;;;5.18;100.00;99029.38;5012351;28;20084;-85
2023/01/15 07:13:41;;;;;;;1.08;0.35;;;;;;;5.12;100.00;99034.66;5013945;28;20118;-82
2023/01/15 07:16:25;;;;;;;0.95;0.15;;;;;;;5.08;100.00;99053.84;5013468;28;20122;-82
2023/01/15 07:18:51;;;;;;;4.40;0.90;;;;;;;5.03;100.00;99045.19;4997473;28;20065;-81
2023/01/15 07:21:17;;;;;;;2.22;0.52;;;;;;;5.03;100.00;99043.47;5013570;28;20044;-81
2023/01/15 07:23:42;;;;;;;1.85;0.32;;;;;;;5.05;100.00;99054.75;5010839;28;20041;-80
2023/01/15 07:26:07;;;;;;;2.25;0.30;;;;;;;5.01;100.00;99054.81;5010896;28;20117;-81
2023/01/15 07:28:33;;;;;;;0.57;0.13;;;;;;;4.97;100.00;99066.16;5013135;28;20152;-81
2023/01/15 07:30:58;;;;;;;1.10;0.30;;;;;;;4.93;100.00;99067.06;5011489;28;20049;-84
2023/01/15 07:33:23;;;;;;;0.63;0.20;;;;;;;4.98;100.00;99081.84;5013856;28;20037;-82
2023/01/15 07:35:49;;;;;;;2.50;0.32;;;;;;;4.95;100.00;99086.19;5020901;28;20041;-80
2023/01/15 07:38:14;;;;;;;1.00;0.30;;;;;;;4.95;100.00;99083.59;5015296;28;20042;-81
2023/01/15 07:40:39;;;;;;;2.45;0.20;;;;;;;4.99;100.00;99085.31;5013418;28;20040;-83
2023/01/15 07:51:16;;;;;;;1.85;0.50;;;;;;;5.03;100.00;99108.81;5012450;28;20116;-83
2023/01/15 07:53:42;;;;;;;1.20;0.22;;;;;;;5.13;100.00;99117.47;5009698;28;20110;-82
2023/01/15 07:56:07;;;;;;;1.20;0.60;;;;;;;5.14;100.00;99128.81;5034888;28;20042;-82
2023/01/15 07:58:33;;;;;;;1.98;0.40;;;;;;;5.16;100.00;99119.19;5013396;28;20112;-83
2023/01/15 08:00:58;;;;;;;0.20;0.10;;;;;;;5.17;100.00;99124.41;5014152;28;20515;-80
2023/01/15 08:03:23;;;;;;;0.20;0.10;;;;;;;5.17;100.00;99131.41;5017003;28;20030;-80
2023/01/15 08:05:49;;;;;;;0.88;0.10;;;;;;;5.15;100.00;99133.16;5013727;28;20049;-80
2023/01/15 08:08:16;;;;;;;2.10;0.30;;;;;;;5.12;100.00;99136.66;5012637;28;20034;-80
2023/01/15 08:16:10;;;;;;;1.58;0.50;;;;;;;5.01;100.00;99157.66;5011104;28;20440;-81
2023/01/15 08:18:36;;;;;;;1.42;0.60;;;;;;;5.04;100.00;99156.75;5011977;28;20045;-79
2023/01/15 08:21:01;;;;;;;1.70;0.50;;;;;;;5.09;100.00;99159.34;5012944;28;20034;-81
2023/01/15 08:23:26;;;;;;;0.80;0.28;;;;;;;5.10;100.00;99163.69;5009734;28;20635;-80
2023/01/15 08:25:52;;;;;;;2.38;0.20;;;;;;;5.03;100.00;99149.78;5012195;28;20034;-80
2023/01/15 08:28:17;;;;;;;1.20;0.55;;;;;;;5.12;100.00;99154.97;5012671;28;20033;-80
2023/01/15 08:30:43;;;;;;;1.10;0.30;;;;;;;5.10;100.00;99161.94;5011247;28;20500;-79
2023/01/15 08:33:08;;;;;;;2.72;0.40;;;;;;;5.03;100.00;99150.66;5007273;28;20038;-80
2023/01/15 08:35:33;;;;;;;5.82;0.50;;;;;;;5.00;100.00;99144.56;5008076;28;20096;-80
2023/01/15 08:38:04;;;;;;;0.38;0.10;;;;;;;5.09;100.00;99141.91;5009638;28;20030;-80
2023/01/15 08:40:29;;;;;;;0.77;0.22;;;;;;;5.21;100.00;99143.56;5009477;28;20037;-80
2023/01/15 08:42:54;;;;;;;0.50;0.20;;;;;;;5.33;100.00;99140.00;5010254;28;20116;-81
2023/01/15 08:45:19;;;;;;;0.75;0.20;;;;;;;5.38;100.00;99146.09;5013768;28;20093;-81
2023/01/15 08:47:45;;;;;;;1.52;0.50;;;;;;;5.41;100.00;99135.59;5014969;28;20129;-79
2023/01/15 08:50:10;;;;;;;1.45;0.32;;;;;;;5.47;100.00;99135.53;5014559;28;20073;-81
2023/01/15 08:52:37;;;;;;;1.95;0.70;;;;;;;5.51;100.00;99142.50;5013168;28;20049;-80
2023/01/15 08:55:02;;;;;;;1.00;0.50;;;;;;;5.55;100.00;99138.94;5012752;28;20113;-82
2023/01/15 08:57:28;;;;;;;2.00;0.40;;;;;;;5.58;100.00;99123.25;5014379;28;20145;-82
2023/01/15 08:59:53;;;;;;;2.08;0.70;;;;;;;5.62;100.00;99117.09;5030623;28;20069;-83
2023/01/15 09:02:18;;;;;;;1.40;0.68;;;;;;;5.65;100.00;99135.38;5015509;28;20036;-83
2023/01/15 09:04:44;;;;;;;3.10;0.70;;;;;;;5.73;100.00;99148.41;5012038;28;20034;-82
2023/01/15 09:07:10;;;;;;;1.10;0.50;;;;;;;5.80;100.00;99144.00;5012593;28;20576;-82
2023/01/15 09:09:35;;;;;;;1.23;0.50;;;;;;;5.79;100.00;99153.59;5016028;28;20037;-82
2023/01/15 09:12:01;;;;;;;0.40;0.22;;;;;;;5.84;100.00;99150.91;5014262;28;20400;-82
2023/01/15 09:14:26;;;;;;;0.57;0.30;;;;;;;5.93;100.00;99140.38;5015938;28;20491;-82
2023/01/15 09:16:52;;;;;;;0.57;0.22;;;;;;;5.91;100.00;99142.13;5011399;28;20658;-81
2023/01/15 09:19:17;;;;;;;0.38;0.15;;;;;;;5.98;100.00;99136.00;5015738;28;20049;-82
2023/01/15 09:21:42;;;;;;;0.25;0.10;;;;;;;6.00;100.00;99129.00;5013217;28;20030;-81
2023/01/15 09:24:08;;;;;;;1.13;0.30;;;;;;;6.02;100.00;99119.34;5018114;28;20038;-81
2023/01/15 09:26:36;;;;;;;0.43;0.13;;;;;;;6.06;100.00;99126.31;5014231;28;20033;-83
2023/01/15 09:29:03;;;;;;;1.08;0.20;;;;;;;6.07;100.00;99122.78;5019934;28;20030;-83
2023/01/15 09:31:30;;;;;;;0.80;0.22;;;;;;;6.20;100.00;99141.00;5020088;28;20038;-82
2023/01/15 09:33:56;;;;;;;2.10;0.40;;;;;;;6.27;100.00;99151.41;5016828;28;20061;-82
2023/01/15 09:36:28;;;;;;;0.93;0.30;;;;;;;6.28;100.00;99152.28;5011402;28;20419;-83
2023/01/15 09:38:54;;;;;;;0.75;0.32;;;;;;;6.27;100.00;99155.78;5018444;28;20049;-83
2023/01/15 09:44:12;;;;;;;4.18;0.40;;;;;;;6.31;100.00;99137.41;5013682;28;20026;-82
2023/01/15 09:46:53;;;;;;;2.22;0.47;;;;;;;6.35;100.00;99136.47;5019145;28;20065;-83
2023/01/15 09:49:36;;;;;;;2.22;0.50;;;;;;;6.45;100.00;99134.63;5022255;28;20041;-81
2023/01/15 09:52:22;;;;;;;1.08;0.50;;;;;;;6.54;100.00;99138.88;5024052;28;20030;-80
2023/01/15 09:54:58;;;;;;;2.70;0.77;;;;;;;6.59;100.00;99137.91;5033631;28;20048;-82
2023/01/15 09:57:26;;;;;;;1.05;0.50;;;;;;;6.57;100.00;99138.81;5008211;28;20029;-81
2023/01/15 09:59:59;;;;;;;0.63;0.30;;;;;;;6.55;100.00;99141.47;5031881;28;20451;-83
2023/01/15 10:02:33;;;;;;;1.52;0.43;;;;;;;6.55;100.00;99140.63;5016914;28;20040;-81
2023/01/15 10:05:15;;;;;;;1.25;0.35;;;;;;;6.61;100.00;99132.66;5017231;28;20061;-83
2023/01/15 10:07:52;;;;;;;2.28;1.05;;;;;;;6.67;100.00;99145.69;5017310;28;20038;-82
2023/01/15 10:10:22;;;;;;;0.55;0.30;;;;;;;6.71;100.00;99149.16;5015778;28;20088;-79
2023/01/15 10:12:53;;;;;;;0.28;0.17;;;;;;;6.77;100.00;99164.81;5025463;28;20030;-82
2023/01/15 10:15:42;;;;;;;0.38;0.20;;;;;;;6.76;100.00;99155.22;5030278;28;20033;-82
2023/01/15 10:18:14;;;;;;;1.52;0.50;;;;;;;6.82;100.00;99157.75;5014236;28;20053;-83
2023/01/15 10:20:39;;;;;;;;;;;;;;;6.78;100.00;99153.41;5021317;28;20054;-82
2023/01/15 10:23:42;;;;;;;1.58;0.82;;;;;;;6.83;100.00;99154.22;5020441;28;19913;-83
2023/01/15 10:26:30;;;;;;;1.17;0.40;;;;;;;6.82;100.00;99154.28;5019290;28;20061;-81
2023/01/15 10:29:02;;;;;;;1.35;0.40;;;;;;;6.89;100.00;99154.16;5017258;28;20172;-82
2023/01/15 10:31:33;;;;;;;0.95;0.30;;;;;;;6.90;100.00;99150.66;5010299;28;20046;-82
2023/01/15 10:34:49;;;;;;;1.02;0.43;;;;;;;6.91;100.00;99152.38;5012340;28;20046;-82
2023/01/15 10:37:28;;;;;;;0.75;0.30;;;;;;;6.93;100.00;99154.97;4998078;28;20054;-81
2023/01/15 10:40:29;;;;;;;0.40;0.10;;;;;;;7.06;100.00;99155.69;5015869;28;20037;-81
2023/01/15 10:43:05;;;;;;;1.35;0.30;;;;;;;7.07;100.00;99155.66;5010221;28;20045;-80
2023/01/15 10:45:42;;;;;;;0.57;0.20;;;;;;;7.16;100.00;99166.03;5010890;28;20033;-81
2023/01/15 10:48:33;;;;;;;0.70;0.30;;;;;;;7.21;100.00;99165.97;5012924;28;20045;-82
2023/01/15 10:51:02;;;;;;;0.95;0.30;;;;;;;7.20;100.00;99169.47;5028977;28;20133;-81
2023/01/15 10:53:42;;;;;;;0.38;0.20;;;;;;;7.25;100.00;99170.25;5005846;28;20030;-80
2023/01/15 10:56:20;;;;;;;0.70;0.30;;;;;;;7.18;100.00;99173.91;5003022;28;20126;-79
2023/01/15 10:58:56;;;;;;;1.23;0.28;;;;;;;7.16;100.00;99179.16;5025463;28;20448;-79
2023/01/15 11:01:24;;;;;;;1.20;0.52;;;;;;;7.19;100.00;99186.09;5012699;28;20116;-79
2023/01/15 11:03:50;;;;;;;0.85;0.22;;;;;;;7.19;100.00;99193.97;5007698;28;20707;-79
2023/01/15 11:06:17;;;;;;;0.82;0.17;;;;;;;7.23;100.00;99190.41;5002849;28;20096;-79
2023/01/15 11:08:55;;;;;;;0.82;0.30;;;;;;;7.23;100.00;99180.81;5010174;28;20084;-80
2023/01/15 11:19:40;;;;;;;0.40;0.32;;;;;;;7.42;100.00;99184.03;5017212;28;20080;-80
2023/01/15 11:22:08;;;;;;;;;;;;;;;7.52;100.00;99173.38;5013717;28;20029;-80
2023/01/15 11:24:45;;;;;;;0.98;0.30;;;;;;;7.44;100.00;99166.50;5009650;28;19921;-81
2023/01/15 11:27:15;;;;;;;2.17;0.17;;;;;;;7.51;99.25;99176.91;5012432;28;20034;-81
2023/01/15 11:29:43;;;;;;;0.80;0.22;;;;;;;7.54;99.58;99171.59;5016354;28;20041;-79
2023/01/15 11:32:27;;;;;;;1.05;0.10;;;;;;;7.49;98.21;99176.91;5013855;28;20071;-80
2023/01/15 11:34:55;;;;;;;0.65;0.00;;;;;;;7.49;95.92;99170.78;5009792;28;20038;-79
2023/01/15 11:37:21;;;;;;;0.68;0.10;;;;;;;7.46;95.17;99164.69;5011979;28;20069;-79
2023/01/15 11:39:54;;;;;;;1.40;0.10;;;;;;;7.58;96.57;99168.03;5013852;28;20065;-79
2023/01/15 11:51:08;;;;;;;1.05;0.13;;;;;;;7.83;92.29;99164.13;5017542;28;20041;-80
2023/01/15 11:53:40;;;;;;;0.20;0.17;;;;;;;7.84;92.06;99160.59;5018554;28;20034;-80
2023/01/15 11:56:11;;;;;;;0.38;0.10;;;;;;;7.82;90.30;99162.38;5023026;28;20037;-79
2023/01/15 11:58:52;;;;;;;0.20;0.10;;;;;;;7.87;90.54;99157.91;5024794;28;20022;-79
2023/01/15 12:01:29;;;;;;;0.30;0.10;;;;;;;7.79;88.66;99156.31;5037026;28;20034;-79
2023/01/15 12:03:55;;;;;;;0.43;0.13;;;;;;;7.78;88.33;99151.94;5023881;28;20037;-79
2023/01/15 12:06:21;;;;;;;0.40;0.10;;;;;;;7.80;87.54;99168.53;5040071;28;20042;-78
2023/01/15 12:08:50;;;;;;;0.00;0.00;;;;;;;7.76;88.41;99166.88;5023334;28;20045;-78
2023/01/15 12:11:40;;;;;;;0.73;0.30;;;;;;;7.85;87.86;99164.94;5030490;28;20042;-79
2023/01/15 12:14:44;;;;;;;0.10;0.08;;;;;;;7.92;85.65;99155.22;5026124;28;20060;-78
2023/01/15 12:17:29;;;;;;;0.08;0.00;;;;;;;7.99;85.80;99166.47;5027942;28;20037;-78
2023/01/15 12:20:06;;;;;;;0.35;0.10;;;;;;;8.02;87.09;99153.31;5030204;28;20504;-79
2023/01/15 12:22:36;;;;;;;0.73;0.35;;;;;;;8.16;85.85;99153.03;5026048;28;20065;-78
2023/01/15 12:25:26;;;;;;;0.60;0.28;;;;;;;8.11;83.54;99142.59;5027133;28;20042;-78
2023/01/15 12:28:17;;;;;;;1.17;0.40;;;;;;;8.19;83.28;99156.47;5027589;28;20081;-78
2023/01/15 12:31:00;;;;;;;0.30;0.08;;;;;;;8.21;83.81;99159.09;5026471;28;20332;-78
2023/01/15 12:33:51;;;;;;;0.60;0.20;;;;;;;8.20;82.04;99160.84;5041677;28;20046;-79
2023/01/15 12:36:35;;;;;;;0.50;0.20;;;;;;;8.08;81.74;99161.94;5021951;28;20101;-78
2023/01/15 12:39:11;;;;;;;1.52;0.43;;;;;;;8.03;81.29;99170.78;5033907;28;20133;-77
2023/01/15 12:44:59;;;;;;;0.63;0.20;;;;;;;8.03;81.12;99155.03;5019892;28;20555;-77